<?xml version="1.0" encoding="UTF-8" standalone="no" ?>
<gpx xmlns="http://www.topografix.com/GPX/1/1" xmlns:xsi="http://www.w3.org/2001/XMLSchema-instance" xsi:schemaLocation="http://www.topografix.com/GPX/1/1 http://www.topografix.com/GPX/1/1/gpx.xsd" version="1.1" creator="VisuGPX - https://www.visugpx.com">
  <metadata>
    <name>Portes des Aravis 12-12-2010</name>
    <desc><![CDATA[portes des Aravis bonne condition neige dur 
beau soleil au sommet]]></desc>
  </metadata>
  <trk>
    <name><![CDATA[Track]]></name>
    <trkseg>
      <trkpt lat="45.9106" lon="6.4668">
        <ele>1290</ele>
        <time>2010-12-12T06:23:08Z</time>
      </trkpt>
      <trkpt lat="45.91048" lon="6.46735">
        <ele>1295</ele>
        <time>2010-12-12T06:33:35Z</time>
      </trkpt>
      <trkpt lat="45.91007" lon="6.46797">
        <ele>1295</ele>
        <time>2010-12-12T06:34:33Z</time>
      </trkpt>
      <trkpt lat="45.9086" lon="6.46637">
        <ele>1295</ele>
        <time>2010-12-12T06:37:00Z</time>
      </trkpt>
      <trkpt lat="45.90748" lon="6.46527">
        <ele>1295</ele>
        <time>2010-12-12T06:38:56Z</time>
      </trkpt>
      <trkpt lat="45.90585" lon="6.4639">
        <ele>1295</ele>
        <time>2010-12-12T06:41:44Z</time>
      </trkpt>
      <trkpt lat="45.90447" lon="6.46313">
        <ele>1295</ele>
        <time>2010-12-12T06:44:06Z</time>
      </trkpt>
      <trkpt lat="45.90387" lon="6.46233">
        <ele>1327</ele>
        <time>2010-12-12T06:45:32Z</time>
      </trkpt>
      <trkpt lat="45.90343" lon="6.46135">
        <ele>1342</ele>
        <time>2010-12-12T06:48:04Z</time>
      </trkpt>
      <trkpt lat="45.90303" lon="6.46118">
        <ele>1360</ele>
        <time>2010-12-12T06:52:01Z</time>
      </trkpt>
      <trkpt lat="45.90263" lon="6.46045">
        <ele>1376</ele>
        <time>2010-12-12T06:55:22Z</time>
      </trkpt>
      <trkpt lat="45.90218" lon="6.46082">
        <ele>1391</ele>
        <time>2010-12-12T06:56:41Z</time>
      </trkpt>
      <trkpt lat="45.90187" lon="6.46018">
        <ele>1406</ele>
        <time>2010-12-12T06:58:30Z</time>
      </trkpt>
      <trkpt lat="45.90147" lon="6.46032">
        <ele>1420</ele>
        <time>2010-12-12T07:00:25Z</time>
      </trkpt>
      <trkpt lat="45.90107" lon="6.46028">
        <ele>1437</ele>
        <time>2010-12-12T07:02:45Z</time>
      </trkpt>
      <trkpt lat="45.90058" lon="6.45992">
        <ele>1452</ele>
        <time>2010-12-12T07:05:46Z</time>
      </trkpt>
      <trkpt lat="45.90025" lon="6.46035">
        <ele>1460</ele>
        <time>2010-12-12T07:07:06Z</time>
      </trkpt>
      <trkpt lat="45.89988" lon="6.45958">
        <ele>1470</ele>
        <time>2010-12-12T07:08:47Z</time>
      </trkpt>
      <trkpt lat="45.8996" lon="6.45987">
        <ele>1477</ele>
        <time>2010-12-12T07:10:22Z</time>
      </trkpt>
      <trkpt lat="45.89917" lon="6.46028">
        <ele>1478</ele>
        <time>2010-12-12T07:12:50Z</time>
      </trkpt>
      <trkpt lat="45.8988" lon="6.46007">
        <ele>1478</ele>
        <time>2010-12-12T07:15:14Z</time>
      </trkpt>
      <trkpt lat="45.89845" lon="6.46048">
        <ele>1478</ele>
        <time>2010-12-12T07:18:51Z</time>
      </trkpt>
      <trkpt lat="45.89815" lon="6.4601">
        <ele>1478</ele>
        <time>2010-12-12T07:20:34Z</time>
      </trkpt>
      <trkpt lat="45.89767" lon="6.46027">
        <ele>1478</ele>
        <time>2010-12-12T07:23:40Z</time>
      </trkpt>
      <trkpt lat="45.89733" lon="6.46058">
        <ele>1478</ele>
        <time>2010-12-12T07:25:34Z</time>
      </trkpt>
      <trkpt lat="45.89697" lon="6.4609">
        <ele>1478</ele>
        <time>2010-12-12T07:28:02Z</time>
      </trkpt>
      <trkpt lat="45.89625" lon="6.46128">
        <ele>1699</ele>
        <time>2010-12-12T07:29:19Z</time>
      </trkpt>
      <trkpt lat="45.8962" lon="6.46213">
        <ele>1698</ele>
        <time>2010-12-12T07:33:11Z</time>
      </trkpt>
      <trkpt lat="45.8958" lon="6.46182">
        <ele>1708</ele>
        <time>2010-12-12T07:34:25Z</time>
      </trkpt>
      <trkpt lat="45.89577" lon="6.4625">
        <ele>1724</ele>
        <time>2010-12-12T07:36:00Z</time>
      </trkpt>
      <trkpt lat="45.89538" lon="6.46278">
        <ele>1746</ele>
        <time>2010-12-12T07:38:14Z</time>
      </trkpt>
      <trkpt lat="45.89525" lon="6.46367">
        <ele>1775</ele>
        <time>2010-12-12T07:41:38Z</time>
      </trkpt>
      <trkpt lat="45.89525" lon="6.46432">
        <ele>1785</ele>
        <time>2010-12-12T07:43:00Z</time>
      </trkpt>
      <trkpt lat="45.89563" lon="6.46542">
        <ele>1803</ele>
        <time>2010-12-12T07:47:09Z</time>
      </trkpt>
      <trkpt lat="45.89522" lon="6.46568">
        <ele>1823</ele>
        <time>2010-12-12T07:49:15Z</time>
      </trkpt>
      <trkpt lat="45.89545" lon="6.46663">
        <ele>1836</ele>
        <time>2010-12-12T07:51:23Z</time>
      </trkpt>
      <trkpt lat="45.89547" lon="6.46777">
        <ele>1852</ele>
        <time>2010-12-12T07:53:09Z</time>
      </trkpt>
      <trkpt lat="45.89575" lon="6.46862">
        <ele>1867</ele>
        <time>2010-12-12T07:54:50Z</time>
      </trkpt>
      <trkpt lat="45.89548" lon="6.46927">
        <ele>1899</ele>
        <time>2010-12-12T08:00:46Z</time>
      </trkpt>
      <trkpt lat="45.89523" lon="6.46967">
        <ele>1921</ele>
        <time>2010-12-12T08:03:55Z</time>
      </trkpt>
      <trkpt lat="45.89462" lon="6.46993">
        <ele>1939</ele>
        <time>2010-12-12T08:11:10Z</time>
      </trkpt>
      <trkpt lat="45.89443" lon="6.47053">
        <ele>1947</ele>
        <time>2010-12-12T08:12:10Z</time>
      </trkpt>
      <trkpt lat="45.89422" lon="6.47138">
        <ele>1967</ele>
        <time>2010-12-12T08:14:28Z</time>
      </trkpt>
      <trkpt lat="45.89303" lon="6.47225">
        <ele>1995</ele>
        <time>2010-12-12T08:21:15Z</time>
      </trkpt>
      <trkpt lat="45.89183" lon="6.47373">
        <ele>2018</ele>
        <time>2010-12-12T08:25:26Z</time>
      </trkpt>
      <trkpt lat="45.8912" lon="6.4748">
        <ele>2041</ele>
        <time>2010-12-12T08:28:30Z</time>
      </trkpt>
      <trkpt lat="45.8909" lon="6.47542">
        <ele>2066</ele>
        <time>2010-12-12T08:31:06Z</time>
      </trkpt>
      <trkpt lat="45.89063" lon="6.47583">
        <ele>2084</ele>
        <time>2010-12-12T08:32:43Z</time>
      </trkpt>
      <trkpt lat="45.89032" lon="6.47652">
        <ele>2097</ele>
        <time>2010-12-12T08:37:11Z</time>
      </trkpt>
      <trkpt lat="45.89002" lon="6.47683">
        <ele>2130</ele>
        <time>2010-12-12T08:41:26Z</time>
      </trkpt>
      <trkpt lat="45.88973" lon="6.47728">
        <ele>2171</ele>
        <time>2010-12-12T08:54:23Z</time>
      </trkpt>
      <trkpt lat="45.8895" lon="6.47783">
        <ele>2201</ele>
        <time>2010-12-12T08:59:03Z</time>
      </trkpt>
      <trkpt lat="45.88935" lon="6.47853">
        <ele>2214</ele>
        <time>2010-12-12T09:06:09Z</time>
      </trkpt>
      <trkpt lat="45.88923" lon="6.47937">
        <ele>2234</ele>
        <time>2010-12-12T09:09:13Z</time>
      </trkpt>
      <trkpt lat="45.8888" lon="6.47987">
        <ele>2258</ele>
        <time>2010-12-12T09:12:00Z</time>
      </trkpt>
      <trkpt lat="45.88828" lon="6.48015">
        <ele>2288</ele>
        <time>2010-12-12T09:14:39Z</time>
      </trkpt>
      <trkpt lat="45.88813" lon="6.48067">
        <ele>2315</ele>
        <time>2010-12-12T09:17:48Z</time>
      </trkpt>
      <trkpt lat="45.88777" lon="6.48095">
        <ele>2345</ele>
        <time>2010-12-12T09:22:10Z</time>
      </trkpt>
      <trkpt lat="45.88732" lon="6.48107">
        <ele>2367</ele>
        <time>2010-12-12T09:26:35Z</time>
      </trkpt>
      <trkpt lat="45.88695" lon="6.48128">
        <ele>2392</ele>
        <time>2010-12-12T09:30:42Z</time>
      </trkpt>
      <trkpt lat="45.88737" lon="6.48068">
        <ele>2345</ele>
        <time>2010-12-12T10:05:51Z</time>
      </trkpt>
      <trkpt lat="45.88797" lon="6.48075">
        <ele>2316</ele>
        <time>2010-12-12T10:06:37Z</time>
      </trkpt>
      <trkpt lat="45.88872" lon="6.48042">
        <ele>2276</ele>
        <time>2010-12-12T10:07:19Z</time>
      </trkpt>
      <trkpt lat="45.88883" lon="6.47967">
        <ele>2249</ele>
        <time>2010-12-12T10:08:00Z</time>
      </trkpt>
      <trkpt lat="45.88883" lon="6.47882">
        <ele>2210</ele>
        <time>2010-12-12T10:09:36Z</time>
      </trkpt>
      <trkpt lat="45.88927" lon="6.47827">
        <ele>2199</ele>
        <time>2010-12-12T10:10:08Z</time>
      </trkpt>
      <trkpt lat="45.88987" lon="6.47857">
        <ele>2189</ele>
        <time>2010-12-12T10:11:38Z</time>
      </trkpt>
      <trkpt lat="45.89013" lon="6.47785">
        <ele>2152</ele>
        <time>2010-12-12T10:12:56Z</time>
      </trkpt>
      <trkpt lat="45.89003" lon="6.47685">
        <ele>2123</ele>
        <time>2010-12-12T10:14:31Z</time>
      </trkpt>
      <trkpt lat="45.89042" lon="6.4759">
        <ele>2089</ele>
        <time>2010-12-12T10:15:35Z</time>
      </trkpt>
      <trkpt lat="45.89112" lon="6.47418">
        <ele>2050</ele>
        <time>2010-12-12T10:17:46Z</time>
      </trkpt>
      <trkpt lat="45.89183" lon="6.47353">
        <ele>2017</ele>
        <time>2010-12-12T10:18:17Z</time>
      </trkpt>
      <trkpt lat="45.89288" lon="6.47217">
        <ele>1996</ele>
        <time>2010-12-12T10:19:14Z</time>
      </trkpt>
      <trkpt lat="45.89408" lon="6.4715">
        <ele>1967</ele>
        <time>2010-12-12T10:21:07Z</time>
      </trkpt>
      <trkpt lat="45.89423" lon="6.46927">
        <ele>1944</ele>
        <time>2010-12-12T10:22:47Z</time>
      </trkpt>
      <trkpt lat="45.89413" lon="6.46812">
        <ele>1925</ele>
        <time>2010-12-12T10:24:44Z</time>
      </trkpt>
      <trkpt lat="45.89375" lon="6.46722">
        <ele>1917</ele>
        <time>2010-12-12T10:27:24Z</time>
      </trkpt>
      <trkpt lat="45.89412" lon="6.46643">
        <ele>1877</ele>
        <time>2010-12-12T10:27:49Z</time>
      </trkpt>
      <trkpt lat="45.89475" lon="6.46572">
        <ele>1835</ele>
        <time>2010-12-12T10:28:33Z</time>
      </trkpt>
      <trkpt lat="45.89487" lon="6.46468">
        <ele>1804</ele>
        <time>2010-12-12T10:29:03Z</time>
      </trkpt>
      <trkpt lat="45.89538" lon="6.46398">
        <ele>1773</ele>
        <time>2010-12-12T10:30:35Z</time>
      </trkpt>
      <trkpt lat="45.89517" lon="6.46258">
        <ele>1744</ele>
        <time>2010-12-12T10:31:23Z</time>
      </trkpt>
      <trkpt lat="45.89578" lon="6.462">
        <ele>1703</ele>
        <time>2010-12-12T10:31:54Z</time>
      </trkpt>
      <trkpt lat="45.89643" lon="6.4613">
        <ele>1668</ele>
        <time>2010-12-12T10:32:54Z</time>
      </trkpt>
      <trkpt lat="45.89733" lon="6.46053">
        <ele>1619</ele>
        <time>2010-12-12T10:33:22Z</time>
      </trkpt>
      <trkpt lat="45.89825" lon="6.4602">
        <ele>1570</ele>
        <time>2010-12-12T10:34:27Z</time>
      </trkpt>
      <trkpt lat="45.8992" lon="6.4601">
        <ele>1527</ele>
        <time>2010-12-12T10:34:49Z</time>
      </trkpt>
      <trkpt lat="45.90002" lon="6.45988">
        <ele>1491</ele>
        <time>2010-12-12T10:35:13Z</time>
      </trkpt>
      <trkpt lat="45.90075" lon="6.46003">
        <ele>1457</ele>
        <time>2010-12-12T10:37:29Z</time>
      </trkpt>
      <trkpt lat="45.90148" lon="6.46027">
        <ele>1425</ele>
        <time>2010-12-12T10:38:02Z</time>
      </trkpt>
      <trkpt lat="45.90217" lon="6.46028">
        <ele>1395</ele>
        <time>2010-12-12T10:38:24Z</time>
      </trkpt>
      <trkpt lat="45.90288" lon="6.4608">
        <ele>1363</ele>
        <time>2010-12-12T10:39:36Z</time>
      </trkpt>
      <trkpt lat="45.90445" lon="6.463">
        <ele>1340</ele>
        <time>2010-12-12T10:40:06Z</time>
      </trkpt>
      <trkpt lat="45.9074" lon="6.46512">
        <ele>1313</ele>
        <time>2010-12-12T10:40:53Z</time>
      </trkpt>
      <trkpt lat="45.90955" lon="6.46747">
        <ele>1292</ele>
        <time>2010-12-12T10:41:28Z</time>
      </trkpt>
      <trkpt lat="45.91007" lon="6.46708">
        <ele>1293</ele>
        <time>2010-12-12T10:42:32Z</time>
      </trkpt>
      <trkpt lat="45.91057" lon="6.46693">
        <ele>1297</ele>
        <time>2010-12-12T10:43:50Z</time>
      </trkpt>
    </trkseg>
  </trk>
</gpx>